sensor_id;sensor_type;location;lat;lon;timestamp;pressure;altitude;pressure_sealevel;temperature;humidity
30714;BME280;17465;47.934;33.430;2023-03-18T00:02:29;57308.19;;;-140.43;100.00
30714;BME280;17465;47.934;33.430;2023-03-18T00:05:02;57338.90;;;-140.43;100.00
30714;BME280;17465;47.934;33.430;2023-03-18T00:07:34;57318.78;;;-140.43;100.00
30714;BME280;17465;47.934;33.430;2023-03-18T00:10:06;57318.78;;;-140.43;100.00
30714;BME280;17465;47.934;33.430;2023-03-18T00:12:39;57357.96;;;-140.43;100.00
30714;BME280;17465;47.934;33.430;2023-03-18T00:15:12;57332.55;;;-140.43;100.00
30714;BME280;17465;47.934;33.430;2023-03-18T00:17:47;57330.43;;;-140.43;100.00
30714;BME280;17465;47.934;33.430;2023-03-18T00:20:18;57324.07;;;-140.43;100.00
30714;BME280;17465;47.934;33.430;2023-03-18T00:22:49;57321.96;;;-140.43;100.00
30714;BME280;17465;47.934;33.430;2023-03-18T00:25:24;57341.02;;;-140.43;100.00
30714;BME280;17465;47.934;33.430;2023-03-18T00:27:52;57345.26;;;-140.43;100.00
30714;BME280;17465;47.934;33.430;2023-03-18T00:30:23;57341.02;;;-140.43;100.00
30714;BME280;17465;47.934;33.430;2023-03-18T00:32:55;57341.02;;;-140.43;100.00
30714;BME280;17465;47.934;33.430;2023-03-18T00:35:26;57330.43;;;-140.43;100.00
30714;BME280;17465;47.934;33.430;2023-03-18T00:38:06;57341.02;;;-140.43;100.00
30714;BME280;17465;47.934;33.430;2023-03-18T00:40:37;57328.31;;;-140.43;100.00
30714;BME280;17465;47.934;33.430;2023-03-18T00:43:09;57330.43;;;-140.43;100.00
30714;BME280;17465;47.934;33.430;2023-03-18T00:45:40;57330.43;;;-140.43;100.00
30714;BME280;17465;47.934;33.430;2023-03-18T00:48:11;57341.02;;;-140.43;100.00
30714;BME280;17465;47.934;33.430;2023-03-18T00:50:42;57331.49;;;-140.43;100.00
30714;BME280;17465;47.934;33.430;2023-03-18T00:53:14;57348.43;;;-140.43;100.00
30714;BME280;17465;47.934;33.430;2023-03-18T00:55:45;57314.55;;;-140.43;100.00
30714;BME280;17465;47.934;33.430;2023-03-18T00:58:16;57316.66;;;-140.43;100.00
30714;BME280;17465;47.934;33.430;2023-03-18T01:00:46;57320.90;;;-140.43;100.00
30714;BME280;17465;47.934;33.430;2023-03-18T01:03:17;57326.20;;;-140.43;100.00
30714;BME280;17465;47.934;33.430;2023-03-18T01:05:49;57326.20;;;-140.43;100.00
30714;BME280;17465;47.934;33.430;2023-03-18T01:08:20;57379.15;;;-140.43;100.00
30714;BME280;17465;47.934;33.430;2023-03-18T01:10:51;57379.15;;;-140.43;100.00
30714;BME280;17465;47.934;33.430;2023-03-18T01:13:26;57316.66;;;-140.43;100.00
30714;BME280;17465;47.934;33.430;2023-03-18T01:15:56;57318.78;;;-140.43;100.00
30714;BME280;17465;47.934;33.430;2023-03-18T01:18:27;57326.20;;;-140.43;100.00
30714;BME280;17465;47.934;33.430;2023-03-18T01:20:57;57326.20;;;-140.43;100.00
30714;BME280;17465;47.934;33.430;2023-03-18T01:23:28;57338.90;;;-140.43;100.00
30714;BME280;17465;47.934;33.430;2023-03-18T01:25:58;57351.61;;;-140.43;100.00
30714;BME280;17465;47.934;33.430;2023-03-18T01:28:29;57339.96;;;-140.43;100.00
30714;BME280;17465;47.934;33.430;2023-03-18T01:30:59;57339.96;;;-140.43;100.00
30714;BME280;17465;47.934;33.430;2023-03-18T01:33:30;57329.37;;;-140.43;100.00
30714;BME280;17465;47.934;33.430;2023-03-18T01:36:02;57330.43;;;-140.43;100.00
30714;BME280;17465;47.934;33.430;2023-03-18T01:38:33;57330.43;;;-140.43;100.00
30714;BME280;17465;47.934;33.430;2023-03-18T01:41:04;57331.49;;;-140.43;100.00
30714;BME280;17465;47.934;33.430;2023-03-18T01:43:38;57345.26;;;-140.43;100.00
30714;BME280;17465;47.934;33.430;2023-03-18T01:46:33;57343.14;;;-140.43;100.00
30714;BME280;17465;47.934;33.430;2023-03-18T01:49:20;57319.84;;;-140.43;100.00
30714;BME280;17465;47.934;33.430;2023-03-18T01:51:53;57319.84;;;-140.43;100.00
30714;BME280;17465;47.934;33.430;2023-03-18T01:54:29;57329.37;;;-140.43;100.00
30714;BME280;17465;47.934;33.430;2023-03-18T01:57:02;57329.37;;;-140.43;100.00
30714;BME280;17465;47.934;33.430;2023-03-18T01:59:36;57348.43;;;-140.43;100.00
30714;BME280;17465;47.934;33.430;2023-03-18T02:02:12;57310.31;;;-140.43;100.00
30714;BME280;17465;47.934;33.430;2023-03-18T02:04:46;57345.26;;;-140.43;99.60
30714;BME280;17465;47.934;33.430;2023-03-18T02:07:23;57297.60;;;-140.43;100.00
30714;BME280;17465;47.934;33.430;2023-03-18T02:09:50;57297.60;;;-140.43;100.00
30714;BME280;17465;47.934;33.430;2023-03-18T02:12:27;57317.72;;;-140.43;100.00
30714;BME280;17465;47.934;33.430;2023-03-18T02:14:58;57351.61;;;-140.43;100.00
30714;BME280;17465;47.934;33.430;2023-03-18T02:17:32;57343.14;;;-140.43;100.00
30714;BME280;17465;47.934;33.430;2023-03-18T02:23:09;57346.32;;;-140.43;100.00
30714;BME280;17465;47.934;33.430;2023-03-18T02:28:31;57367.50;;;-140.43;100.00
30714;BME280;17465;47.934;33.430;2023-03-18T02:31:06;57349.49;;;-140.43;100.00
30714;BME280;17465;47.934;33.430;2023-03-18T02:33:37;57317.72;;;-140.43;100.00
30714;BME280;17465;47.934;33.430;2023-03-18T02:36:12;57332.55;;;-140.43;100.00
30714;BME280;17465;47.934;33.430;2023-03-18T02:38:44;57332.55;;;-140.43;100.00
30714;BME280;17465;47.934;33.430;2023-03-18T02:41:18;57334.67;;;-140.43;100.00
30714;BME280;17465;47.934;33.430;2023-03-18T02:43:50;57350.55;;;-140.43;100.00
30714;BME280;17465;47.934;33.430;2023-03-18T02:46:37;57335.73;;;-140.43;100.00
30714;BME280;17465;47.934;33.430;2023-03-18T02:49:07;57335.73;;;-140.43;100.00
30714;BME280;17465;47.934;33.430;2023-03-18T02:51:38;57329.37;;;-140.43;100.00
30714;BME280;17465;47.934;33.430;2023-03-18T02:54:13;57329.37;;;-140.43;100.00
30714;BME280;17465;47.934;33.430;2023-03-18T02:56:44;57344.20;;;-140.43;100.00
30714;BME280;17465;47.934;33.430;2023-03-18T02:59:17;57344.20;;;-140.43;100.00
30714;BME280;17465;47.934;33.430;2023-03-18T03:01:50;57321.96;;;-140.43;100.00
30714;BME280;17465;47.934;33.430;2023-03-18T03:04:23;57345.26;;;-140.43;100.00
30714;BME280;17465;47.934;33.430;2023-03-18T03:06:57;57348.43;;;-140.43;100.00
30714;BME280;17465;47.934;33.430;2023-03-18T03:09:27;57314.55;;;-140.43;100.00
30714;BME280;17465;47.934;33.430;2023-03-18T03:11:58;57314.55;;;-140.43;100.00
30714;BME280;17465;47.934;33.430;2023-03-18T03:14:28;57330.43;;;-140.43;100.00
30714;BME280;17465;47.934;33.430;2023-03-18T03:16:58;57350.55;;;-140.43;100.00
30714;BME280;17465;47.934;33.430;2023-03-18T03:19:29;57328.31;;;-140.43;100.00
30714;BME280;17465;47.934;33.430;2023-03-18T03:22:01;57345.26;;;-140.43;100.00
30714;BME280;17465;47.934;33.430;2023-03-18T03:24:31;57364.32;;;-140.43;100.00
30714;BME280;17465;47.934;33.430;2023-03-18T03:27:01;57319.84;;;-140.43;100.00
30714;BME280;17465;47.934;33.430;2023-03-18T03:29:36;57343.14;;;-140.43;100.00
30714;BME280;17465;47.934;33.430;2023-03-18T03:32:06;57359.03;;;-140.43;100.00
30714;BME280;17465;47.934;33.430;2023-03-18T03:34:37;57336.79;;;-140.43;100.00
30714;BME280;17465;47.934;33.430;2023-03-18T03:37:08;57327.25;;;-140.43;100.00
30714;BME280;17465;47.934;33.430;2023-03-18T03:39:40;57324.07;;;-140.43;100.00
30714;BME280;17465;47.934;33.430;2023-03-18T03:42:11;57324.07;;;-140.43;100.00
30714;BME280;17465;47.934;33.430;2023-03-18T03:44:42;57333.61;;;-140.43;100.00
30714;BME280;17465;47.934;33.430;2023-03-18T03:47:12;57326.20;;;-140.43;100.00
30714;BME280;17465;47.934;33.430;2023-03-18T03:49:42;57345.26;;;-140.43;100.00
30714;BME280;17465;47.934;33.430;2023-03-18T03:52:13;57331.49;;;-140.43;100.00
30714;BME280;17465;47.934;33.430;2023-03-18T03:54:44;57331.49;;;-140.43;100.00
30714;BME280;17465;47.934;33.430;2023-03-18T03:57:22;57347.38;;;-140.43;100.00
30714;BME280;17465;47.934;33.430;2023-03-18T03:59:53;57347.38;;;-140.43;100.00
30714;BME280;17465;47.934;33.430;2023-03-18T04:02:24;57339.96;;;-140.43;100.00
30714;BME280;17465;47.934;33.430;2023-03-18T04:04:55;57327.25;;;-140.43;100.00
30714;BME280;17465;47.934;33.430;2023-03-18T04:07:25;57318.78;;;-140.43;100.00
30714;BME280;17465;47.934;33.430;2023-03-18T04:09:57;57318.78;;;-140.43;100.00
30714;BME280;17465;47.934;33.430;2023-03-18T04:12:28;57360.08;;;-140.43;99.18
30714;BME280;17465;47.934;33.430;2023-03-18T04:14:59;57332.55;;;-140.43;99.66
30714;BME280;17465;47.934;33.430;2023-03-18T04:17:29;57348.43;;;-140.43;100.00
30714;BME280;17465;47.934;33.430;2023-03-18T04:20:03;57333.61;;;-140.43;99.67
30714;BME280;17465;47.934;33.430;2023-03-18T04:22:37;57342.08;;;-140.43;100.00
30714;BME280;17465;47.934;33.430;2023-03-18T04:25:09;57342.08;;;-140.43;100.00
30714;BME280;17465;47.934;33.430;2023-03-18T04:27:40;57342.08;;;-140.43;100.00
30714;BME280;17465;47.934;33.430;2023-03-18T04:30:14;57349.49;;;-140.43;100.00
30714;BME280;17465;47.934;33.430;2023-03-18T04:32:45;57353.73;;;-140.43;100.00
30714;BME280;17465;47.934;33.430;2023-03-18T04:35:17;57353.73;;;-140.43;100.00
30714;BME280;17465;47.934;33.430;2023-03-18T04:37:48;57343.14;;;-140.43;100.00
30714;BME280;17465;47.934;33.430;2023-03-18T04:40:19;57335.73;;;-140.43;100.00
30714;BME280;17465;47.934;33.430;2023-03-18T04:42:50;57337.84;;;-140.43;100.00
30714;BME280;17465;47.934;33.430;2023-03-18T04:45:21;57337.84;;;-140.43;100.00
30714;BME280;17465;47.934;33.430;2023-03-18T04:47:51;57334.67;;;-140.43;100.00
30714;BME280;17465;47.934;33.430;2023-03-18T04:50:22;57364.32;;;-140.43;100.00
30714;BME280;17465;47.934;33.430;2023-03-18T04:52:53;57364.32;;;-140.43;100.00
30714;BME280;17465;47.934;33.430;2023-03-18T04:55:23;57357.96;;;-140.43;100.00
30714;BME280;17465;47.934;33.430;2023-03-18T04:57:54;57347.38;;;-140.43;100.00
30714;BME280;17465;47.934;33.430;2023-03-18T05:00:25;57350.55;;;-140.43;99.35
30714;BME280;17465;47.934;33.430;2023-03-18T05:02:56;57357.96;;;-140.43;99.39
30714;BME280;17465;47.934;33.430;2023-03-18T05:05:27;57357.96;;;-140.43;99.39
30714;BME280;17465;47.934;33.430;2023-03-18T05:07:58;57329.37;;;-140.43;99.77
30714;BME280;17465;47.934;33.430;2023-03-18T05:10:32;57321.96;;;-140.43;100.00
30714;BME280;17465;47.934;33.430;2023-03-18T05:13:02;57327.25;;;-140.43;99.36
30714;BME280;17465;47.934;33.430;2023-03-18T05:15:35;57327.25;;;-140.43;99.36
30714;BME280;17465;47.934;33.430;2023-03-18T05:18:05;57332.55;;;-140.43;99.75
30714;BME280;17465;47.934;33.430;2023-03-18T05:20:36;57332.55;;;-140.43;99.75
30714;BME280;17465;47.934;33.430;2023-03-18T05:23:06;57371.73;;;-140.43;100.00
30714;BME280;17465;47.934;33.430;2023-03-18T05:25:37;57371.73;;;-140.43;100.00
30714;BME280;17465;47.934;33.430;2023-03-18T05:28:11;57333.61;;;-140.43;99.78
30714;BME280;17465;47.934;33.430;2023-03-18T05:30:41;57333.61;;;-140.43;99.78
30714;BME280;17465;47.934;33.430;2023-03-18T05:33:12;57350.55;;;-140.43;100.00
30714;BME280;17465;47.934;33.430;2023-03-18T05:35:43;57310.31;;;-140.43;100.00
30714;BME280;17465;47.934;33.430;2023-03-18T05:38:15;57330.43;;;-140.43;100.00
30714;BME280;17465;47.934;33.430;2023-03-18T05:40:46;57321.96;;;-140.43;100.00
30714;BME280;17465;47.934;33.430;2023-03-18T05:43:16;57320.90;;;-140.43;100.00
30714;BME280;17465;47.934;33.430;2023-03-18T05:45:50;57320.90;;;-140.43;100.00
30714;BME280;17465;47.934;33.430;2023-03-18T05:48:21;57329.37;;;-140.43;99.95
30714;BME280;17465;47.934;33.430;2023-03-18T05:50:52;57319.84;;;-140.43;100.00
30714;BME280;17465;47.934;33.430;2023-03-18T05:53:29;57320.90;;;-140.43;100.00
30714;BME280;17465;47.934;33.430;2023-03-18T05:56:09;57339.96;;;-140.43;100.00
30714;BME280;17465;47.934;33.430;2023-03-18T05:58:40;57335.73;;;-140.43;100.00
30714;BME280;17465;47.934;33.430;2023-03-18T06:01:11;57335.73;;;-140.43;100.00
30714;BME280;17465;47.934;33.430;2023-03-18T06:03:43;57332.55;;;-140.43;100.00
30714;BME280;17465;47.934;33.430;2023-03-18T06:06:13;57342.08;;;-140.43;99.52
30714;BME280;17465;47.934;33.430;2023-03-18T06:08:44;57346.32;;;-140.43;100.00
30714;BME280;17465;47.934;33.430;2023-03-18T06:11:15;57321.96;;;-140.43;100.00
30714;BME280;17465;47.934;33.430;2023-03-18T06:13:46;57357.96;;;-140.43;99.92
30714;BME280;17465;47.934;33.430;2023-03-18T06:16:17;57347.38;;;-140.43;100.00
30714;BME280;17465;47.934;33.430;2023-03-18T06:18:48;57313.48;;;-140.43;98.23
30714;BME280;17465;47.934;33.430;2023-03-18T06:21:19;57310.31;;;-140.43;98.74
30714;BME280;17465;47.934;33.430;2023-03-18T06:23:50;57343.14;;;-140.43;98.35
30714;BME280;17465;47.934;33.430;2023-03-18T06:26:21;57344.20;;;-140.43;96.87
30714;BME280;17465;47.934;33.430;2023-03-18T06:28:52;57323.02;;;-140.43;97.98
30714;BME280;17465;47.934;33.430;2023-03-18T06:31:23;57344.20;;;-140.43;97.09
30714;BME280;17465;47.934;33.430;2023-03-18T06:33:56;57332.55;;;-140.43;97.47
30714;BME280;17465;47.934;33.430;2023-03-18T06:36:30;57332.55;;;-140.43;97.47
30714;BME280;17465;47.934;33.430;2023-03-18T06:39:01;57317.72;;;-140.43;98.81
30714;BME280;17465;47.934;33.430;2023-03-18T06:41:32;57349.49;;;-140.43;97.47
30714;BME280;17465;47.934;33.430;2023-03-18T06:44:06;57341.02;;;-140.43;97.73
30714;BME280;17465;47.934;33.430;2023-03-18T06:46:36;57332.55;;;-140.43;98.57
30714;BME280;17465;47.934;33.430;2023-03-18T06:49:07;57327.25;;;-140.43;99.22
30714;BME280;17465;47.934;33.430;2023-03-18T06:51:41;57327.25;;;-140.43;99.22
30714;BME280;17465;47.934;33.430;2023-03-18T06:54:12;57339.96;;;-140.43;98.05
30714;BME280;17465;47.934;33.430;2023-03-18T06:56:43;57327.25;;;-140.43;99.28
30714;BME280;17465;47.934;33.430;2023-03-18T06:59:15;57344.20;;;-140.43;99.67
30714;BME280;17465;47.934;33.430;2023-03-18T07:01:46;57342.08;;;-140.43;99.18
30714;BME280;17465;47.934;33.430;2023-03-18T07:04:17;57317.72;;;-140.43;99.72
30714;BME280;17465;47.934;33.430;2023-03-18T07:06:48;57317.72;;;-140.43;99.72
30714;BME280;17465;47.934;33.430;2023-03-18T07:09:19;57323.02;;;-140.43;99.26
30714;BME280;17465;47.934;33.430;2023-03-18T07:11:50;57303.95;;;-140.43;99.34
30714;BME280;17465;47.934;33.430;2023-03-18T07:14:21;57303.95;;;-140.43;99.34
30714;BME280;17465;47.934;33.430;2023-03-18T07:16:54;57321.96;;;-140.43;97.63
30714;BME280;17465;47.934;33.430;2023-03-18T07:19:31;57333.61;;;-140.43;97.47
30714;BME280;17465;47.934;33.430;2023-03-18T07:21:59;57331.49;;;-140.43;97.67
30714;BME280;17465;47.934;33.430;2023-03-18T07:24:30;57332.55;;;-140.43;97.73
30714;BME280;17465;47.934;33.430;2023-03-18T07:27:06;57335.73;;;-140.43;97.42
30714;BME280;17465;47.934;33.430;2023-03-18T07:29:41;57346.32;;;-140.43;99.35
30714;BME280;17465;47.934;33.430;2023-03-18T07:32:12;57296.54;;;-140.43;99.07
30714;BME280;17465;47.934;33.430;2023-03-18T07:34:44;57296.54;;;-140.43;99.07
30714;BME280;17465;47.934;33.430;2023-03-18T07:37:19;57362.20;;;-140.43;100.00
30714;BME280;17465;47.934;33.430;2023-03-18T07:39:52;57362.20;;;-140.43;100.00
30714;BME280;17465;47.934;33.430;2023-03-18T07:42:25;57339.96;;;-140.43;100.00
30714;BME280;17465;47.934;33.430;2023-03-18T07:44:57;57346.32;;;-140.43;99.45
30714;BME280;17465;47.934;33.430;2023-03-18T07:47:40;57346.32;;;-140.43;99.45
30714;BME280;17465;47.934;33.430;2023-03-18T07:50:34;57348.43;;;-140.43;99.55
30714;BME280;17465;47.934;33.430;2023-03-18T07:53:03;57339.96;;;-140.43;99.37
30714;BME280;17465;47.934;33.430;2023-03-18T07:55:42;57339.96;;;-140.43;99.37
30714;BME280;17465;47.934;33.430;2023-03-18T07:58:12;57356.91;;;-140.43;98.33
30714;BME280;17465;47.934;33.430;2023-03-18T08:00:44;57331.49;;;-140.43;96.86
30714;BME280;17465;47.934;33.430;2023-03-18T08:03:20;57333.61;;;-140.43;98.43
30714;BME280;17465;47.934;33.430;2023-03-18T08:06:09;57333.61;;;-140.43;98.43
30714;BME280;17465;47.934;33.430;2023-03-18T08:08:37;57333.61;;;-140.43;98.59
30714;BME280;17465;47.934;33.430;2023-03-18T08:11:11;57333.61;;;-140.43;98.59
30714;BME280;17465;47.934;33.430;2023-03-18T08:13:53;57336.79;;;-140.43;99.69
30714;BME280;17465;47.934;33.430;2023-03-18T08:16:28;57327.25;;;-140.43;98.88
30714;BME280;17465;47.934;33.430;2023-03-18T08:18:59;57318.78;;;-140.43;98.19
30714;BME280;17465;47.934;33.430;2023-03-18T08:21:32;57318.78;;;-140.43;98.19
30714;BME280;17465;47.934;33.430;2023-03-18T08:24:12;57324.07;;;-140.43;95.45
30714;BME280;17465;47.934;33.430;2023-03-18T08:26:45;57338.90;;;-140.43;96.60
30714;BME280;17465;47.934;33.430;2023-03-18T08:29:17;57348.43;;;-140.43;99.42
30714;BME280;17465;47.934;33.430;2023-03-18T08:31:48;57337.84;;;-140.43;97.07
30714;BME280;17465;47.934;33.430;2023-03-18T08:34:22;57346.32;;;-140.43;96.38
30714;BME280;17465;47.934;33.430;2023-03-18T08:37:03;57350.55;;;-140.43;96.95
30714;BME280;17465;47.934;33.430;2023-03-18T08:39:38;57331.49;;;-140.43;97.18
30714;BME280;17465;47.934;33.430;2023-03-18T08:42:23;57339.96;;;-140.43;95.88
30714;BME280;17465;47.934;33.430;2023-03-18T08:44:55;57338.90;;;-140.43;96.47
30714;BME280;17465;47.934;33.430;2023-03-18T08:47:28;57338.90;;;-140.43;96.45
30714;BME280;17465;47.934;33.430;2023-03-18T08:50:02;57338.90;;;-140.43;96.45
30714;BME280;17465;47.934;33.430;2023-03-18T08:52:41;57329.37;;;-140.43;96.34
30714;BME280;17465;47.934;33.430;2023-03-18T08:55:15;57330.43;;;-140.43;94.61
30714;BME280;17465;47.934;33.430;2023-03-18T08:57:51;57337.84;;;-140.43;93.84
30714;BME280;17465;47.934;33.430;2023-03-18T09:00:36;57354.79;;;-140.43;95.33
30714;BME280;17465;47.934;33.430;2023-03-18T09:03:28;57319.84;;;-140.43;95.83
30714;BME280;17465;47.934;33.430;2023-03-18T09:06:05;57336.79;;;-140.43;97.01
30714;BME280;17465;47.934;33.430;2023-03-18T09:16:19;57331.49;;;-140.43;94.58
30714;BME280;17465;47.934;33.430;2023-03-18T09:18:51;57347.38;;;-140.43;93.77
30714;BME280;17465;47.934;33.430;2023-03-18T09:21:22;57346.32;;;-140.43;94.70
30714;BME280;17465;47.934;33.430;2023-03-18T09:23:57;57346.32;;;-140.43;94.70
30714;BME280;17465;47.934;33.430;2023-03-18T09:26:50;57331.49;;;-140.43;94.91
30714;BME280;17465;47.934;33.430;2023-03-18T09:29:27;57331.49;;;-140.43;94.91
30714;BME280;17465;47.934;33.430;2023-03-18T09:32:00;57334.67;;;-140.43;96.30
30714;BME280;17465;47.934;33.430;2023-03-18T09:34:36;57334.67;;;-140.43;96.30
30714;BME280;17465;47.934;33.430;2023-03-18T09:37:09;57343.14;;;-140.43;96.07
30714;BME280;17465;47.934;33.430;2023-03-18T09:39:43;57329.37;;;-140.43;94.68
30714;BME280;17465;47.934;33.430;2023-03-18T09:45:02;57332.55;;;-140.43;94.45
30714;BME280;17465;47.934;33.430;2023-03-18T09:48:09;57332.55;;;-140.43;94.55
30714;BME280;17465;47.934;33.430;2023-03-18T09:50:41;57350.55;;;-140.43;93.55
30714;BME280;17465;47.934;33.430;2023-03-18T09:56:20;57325.14;;;-140.43;93.50
30714;BME280;17465;47.934;33.430;2023-03-18T09:59:16;57333.61;;;-140.43;92.85
30714;BME280;17465;47.934;33.430;2023-03-18T10:02:22;57337.84;;;-140.43;92.69
30714;BME280;17465;47.934;33.430;2023-03-18T10:04:58;57325.14;;;-140.43;92.63
30714;BME280;17465;47.934;33.430;2023-03-18T10:07:41;57325.14;;;-140.43;92.63
30714;BME280;17465;47.934;33.430;2023-03-18T10:16:11;57335.73;;;-140.43;93.52
30714;BME280;17465;47.934;33.430;2023-03-18T10:18:49;57332.55;;;-140.43;93.42
30714;BME280;17465;47.934;33.430;2023-03-18T10:24:31;57335.73;;;-140.43;92.51
30714;BME280;17465;47.934;33.430;2023-03-18T10:27:23;57331.49;;;-140.43;92.25
30714;BME280;17465;47.934;33.430;2023-03-18T10:30:11;57331.49;;;-140.43;92.25
30714;BME280;17465;47.934;33.430;2023-03-18T10:32:42;57318.78;;;-140.43;92.13
30714;BME280;17465;47.934;33.430;2023-03-18T10:35:29;57319.84;;;-140.43;89.74
30714;BME280;17465;47.934;33.430;2023-03-18T10:38:03;57320.90;;;-140.43;90.18
30714;BME280;17465;47.934;33.430;2023-03-18T10:40:38;57334.67;;;-140.43;89.75
30714;BME280;17465;47.934;33.430;2023-03-18T10:43:13;57326.20;;;-140.43;90.20
30714;BME280;17465;47.934;33.430;2023-03-18T10:45:50;57297.60;;;-140.43;89.35
30714;BME280;17465;47.934;33.430;2023-03-18T10:48:26;57327.25;;;-140.43;87.22
30714;BME280;17465;47.934;33.430;2023-03-18T10:54:39;57347.38;;;-140.43;89.46
30714;BME280;17465;47.934;33.430;2023-03-18T10:57:25;57347.38;;;-140.43;89.46
30714;BME280;17465;47.934;33.430;2023-03-18T11:00:01;57313.48;;;-140.43;87.41
30714;BME280;17465;47.934;33.430;2023-03-18T11:02:44;57308.19;;;-140.43;87.78
30714;BME280;17465;47.934;33.430;2023-03-18T11:05:35;57333.61;;;-140.43;88.99
30714;BME280;17465;47.934;33.430;2023-03-18T11:08:34;57347.38;;;-140.43;88.96
30714;BME280;17465;47.934;33.430;2023-03-18T11:10:46;57318.78;;;-140.43;87.32
30714;BME280;17465;47.934;33.430;2023-03-18T11:13:18;57348.43;;;-140.43;87.99
30714;BME280;17465;47.934;33.430;2023-03-18T11:15:53;57370.68;;;-140.43;88.43
30714;BME280;17465;47.934;33.430;2023-03-18T11:18:30;57370.68;;;-140.43;88.43
30714;BME280;17465;47.934;33.430;2023-03-18T11:21:01;57345.26;;;-140.43;89.33
30714;BME280;17465;47.934;33.430;2023-03-18T11:23:37;57305.01;;;-140.43;90.10
30714;BME280;17465;47.934;33.430;2023-03-18T11:26:28;57328.31;;;-140.43;91.38
30714;BME280;17465;47.934;33.430;2023-03-18T11:29:09;57335.73;;;-140.43;90.89
30714;BME280;17465;47.934;33.430;2023-03-18T11:31:59;57312.43;;;-140.43;90.34
30714;BME280;17465;47.934;33.430;2023-03-18T11:34:34;57301.84;;;-140.43;88.98
30714;BME280;17465;47.934;33.430;2023-03-18T11:37:08;57318.78;;;-140.43;90.41
30714;BME280;17465;47.934;33.430;2023-03-18T11:39:40;57333.61;;;-140.43;87.57
30714;BME280;17465;47.934;33.430;2023-03-18T11:42:20;57333.61;;;-140.43;87.57
30714;BME280;17465;47.934;33.430;2023-03-18T11:45:06;57313.48;;;-140.43;86.91
30714;BME280;17465;47.934;33.430;2023-03-18T11:47:36;57335.73;;;-140.43;88.06
30714;BME280;17465;47.934;33.430;2023-03-18T11:50:18;57335.73;;;-140.43;88.06
30714;BME280;17465;47.934;33.430;2023-03-18T11:53:12;57336.79;;;-140.43;87.19
30714;BME280;17465;47.934;33.430;2023-03-18T11:55:55;57329.37;;;-140.43;88.98
30714;BME280;17465;47.934;33.430;2023-03-18T12:19:09;57314.55;;;-140.43;89.57
30714;BME280;17465;47.934;33.430;2023-03-18T12:30:34;57352.67;;;-140.43;90.85
30714;BME280;17465;47.934;33.430;2023-03-18T12:45:16;57357.96;;;-140.43;88.52
30714;BME280;17465;47.934;33.430;2023-03-18T12:50:33;57341.02;;;-140.43;87.15
30714;BME280;17465;47.934;33.430;2023-03-18T12:56:18;57337.84;;;-140.43;89.52
30714;BME280;17465;47.934;33.430;2023-03-18T12:59:09;57337.84;;;-140.43;89.19
30714;BME280;17465;47.934;33.430;2023-03-18T13:01:43;57337.84;;;-140.43;89.19
30714;BME280;17465;47.934;33.430;2023-03-18T13:10:35;57338.90;;;-140.43;90.12
30714;BME280;17465;47.934;33.430;2023-03-18T13:13:10;57338.90;;;-140.43;89.58
30714;BME280;17465;47.934;33.430;2023-03-18T13:15:48;57338.90;;;-140.43;89.58
30714;BME280;17465;47.934;33.430;2023-03-18T13:21:23;57332.55;;;-140.43;87.64
30714;BME280;17465;47.934;33.430;2023-03-18T13:38:21;57334.67;;;-140.43;90.91
30714;BME280;17465;47.934;33.430;2023-03-18T13:41:16;57295.48;;;-140.43;89.77
30714;BME280;17465;47.934;33.430;2023-03-18T13:43:52;57337.84;;;-140.43;90.16
30714;BME280;17465;47.934;33.430;2023-03-18T13:46:30;57337.84;;;-140.43;90.16
30714;BME280;17465;47.934;33.430;2023-03-18T13:49:02;57348.43;;;-140.43;90.21
30714;BME280;17465;47.934;33.430;2023-03-18T13:54:12;57339.96;;;-140.43;88.88
30714;BME280;17465;47.934;33.430;2023-03-18T13:56:52;57347.38;;;-140.43;88.04
30714;BME280;17465;47.934;33.430;2023-03-18T14:05:32;57321.96;;;-140.43;88.07
30714;BME280;17465;47.934;33.430;2023-03-18T14:07:47;57344.20;;;-140.43;88.85
30714;BME280;17465;47.934;33.430;2023-03-18T14:10:18;57332.55;;;-140.43;87.33
30714;BME280;17465;47.934;33.430;2023-03-18T14:12:51;57337.84;;;-140.43;89.82
30714;BME280;17465;47.934;33.430;2023-03-18T14:15:41;57337.84;;;-140.43;89.82
30714;BME280;17465;47.934;33.430;2023-03-18T14:18:24;57338.90;;;-140.43;88.18
30714;BME280;17465;47.934;33.430;2023-03-18T14:20:58;57338.90;;;-140.43;87.84
30714;BME280;17465;47.934;33.430;2023-03-18T14:23:38;57341.02;;;-140.43;88.32
30714;BME280;17465;47.934;33.430;2023-03-18T14:26:36;57334.67;;;-140.43;88.50
30714;BME280;17465;47.934;33.430;2023-03-18T14:35:27;57335.73;;;-140.43;87.93
30714;BME280;17465;47.934;33.430;2023-03-18T14:40:51;57347.38;;;-140.43;89.97
30714;BME280;17465;47.934;33.430;2023-03-18T14:43:33;57339.96;;;-140.43;89.55
30714;BME280;17465;47.934;33.430;2023-03-18T14:46:04;57337.84;;;-140.43;88.40
30714;BME280;17465;47.934;33.430;2023-03-18T14:48:56;57337.84;;;-140.43;88.40
30714;BME280;17465;47.934;33.430;2023-03-18T14:51:45;57325.14;;;-140.43;90.64
30714;BME280;17465;47.934;33.430;2023-03-18T14:54:20;57344.20;;;-140.43;89.99
30714;BME280;17465;47.934;33.430;2023-03-18T14:56:53;57344.20;;;-140.43;89.99
30714;BME280;17465;47.934;33.430;2023-03-18T14:59:25;57342.08;;;-140.43;90.88
30714;BME280;17465;47.934;33.430;2023-03-18T15:01:56;57330.43;;;-140.43;89.79
30714;BME280;17465;47.934;33.430;2023-03-18T15:04:27;57330.43;;;-140.43;89.79